Time;durP1;ratioP1;P1;durP2;ratioP2;P2;SDS_P1;SDS_P2;PMS_P1;PMS_P2;Temp;Humidity;BMP_temperature;BMP_pressure;BME280_temperature;BME280_humidity;BME280_pressure;Samples;Min_cycle;Max_cycle;Signal;HPM_P1;HPM_P2
2022/08/09 00:01:32;;;;;;;7.28;6.45;;;;;;;26.26;49.96;99425.00;5050567;28;20667;-65
2022/08/09 00:03:59;;;;;;;7.78;5.88;;;;;;;26.20;49.93;99431.44;5050433;28;20533;-65
2022/08/09 00:06:26;;;;;;;7.60;5.47;;;;;;;26.15;49.64;99427.31;5050637;28;20220;-66
2022/08/09 00:08:54;;;;;;;5.47;5.07;;;;;;;26.08;49.04;99431.97;5050763;28;20211;-65
2022/08/09 00:11:21;;;;;;;7.35;5.65;;;;;;;26.07;49.39;99421.53;5050620;28;20247;-65
2022/08/09 00:13:48;;;;;;;5.88;5.30;;;;;;;26.05;49.70;99429.47;5066791;28;20195;-66
2022/08/09 00:16:17;;;;;;;13.50;5.95;;;;;;;26.05;49.53;99426.84;5070167;28;20216;-66
2022/08/09 00:18:44;;;;;;;6.40;5.70;;;;;;;26.02;49.45;99426.13;5070163;28;20304;-65
2022/08/09 00:21:11;;;;;;;6.30;5.70;;;;;;;25.96;49.60;99421.19;5070172;28;20673;-66
2022/08/09 00:23:39;;;;;;;8.80;6.60;;;;;;;25.87;48.84;99422.47;5070227;28;20195;-65
2022/08/09 00:26:06;;;;;;;7.07;5.60;;;;;;;25.68;49.02;99400.56;5070064;28;20195;-66
2022/08/09 00:28:33;;;;;;;7.25;6.43;;;;;;;25.78;49.16;99409.72;5070454;28;20195;-65
2022/08/09 00:31:01;;;;;;;10.90;6.40;;;;;;;25.73;49.43;99415.22;5070346;28;20195;-65
2022/08/09 00:33:29;;;;;;;7.72;6.57;;;;;;;25.70;49.86;99422.41;5070208;28;20195;-65
2022/08/09 00:35:58;;;;;;;7.55;6.80;;;;;;;25.67;50.08;99422.53;5053767;28;20443;-64
2022/08/09 00:38:25;;;;;;;9.02;6.43;;;;;;;25.65;49.99;99422.63;5049979;28;20188;-64
2022/08/09 00:40:52;;;;;;;8.50;6.53;;;;;;;25.64;50.18;99420.91;5050363;28;20196;-65
2022/08/09 00:43:19;;;;;;;6.97;6.05;;;;;;;25.63;49.96;99421.81;5050403;28;20199;-64
2022/08/09 00:45:47;;;;;;;8.10;6.35;;;;;;;25.62;50.29;99421.91;5050182;28;20252;-65
2022/08/09 00:48:13;;;;;;;7.03;6.30;;;;;;;25.55;50.03;99415.19;5050030;28;20203;-65
2022/08/09 00:50:42;;;;;;;10.93;6.85;;;;;;;25.50;49.86;99419.81;5049769;28;20199;-65
2022/08/09 00:53:11;;;;;;;16.13;7.10;;;;;;;25.40;50.02;99426.38;5049792;28;20188;-64
2022/08/09 00:55:38;;;;;;;7.93;6.60;;;;;;;25.38;50.27;99422.97;5054480;28;20278;-64
2022/08/09 00:58:05;;;;;;;8.70;6.95;;;;;;;25.39;50.28;99424.66;5068675;28;20557;-64
2022/08/09 01:00:34;;;;;;;7.55;6.75;;;;;;;25.46;50.20;99426.13;5069804;28;20199;-64
2022/08/09 01:03:11;;;;;;;7.85;6.97;;;;;;;25.51;50.01;99424.16;5068600;28;20782;-63
2022/08/09 01:05:45;;;;;;;7.75;6.85;;;;;;;25.54;49.82;99427.53;5069999;28;20191;-64
2022/08/09 01:08:20;;;;;;;8.25;6.75;;;;;;;25.47;50.15;99423.44;5070795;28;20561;-65
2022/08/09 01:10:57;;;;;;;11.50;7.50;;;;;;;25.40;50.50;99426.38;5069415;28;20187;-66
2022/08/09 01:13:32;;;;;;;7.77;6.27;;;;;;;25.35;50.55;99425.75;5071389;28;20606;-66
2022/08/09 01:16:00;;;;;;;8.77;6.37;;;;;;;25.29;50.61;99428.66;5073029;28;20213;-66
2022/08/09 01:18:32;;;;;;;6.95;6.25;;;;;;;25.23;50.55;99422.75;5072995;28;20222;-66
2022/08/09 01:21:19;;;;;;;9.32;6.72;;;;;;;25.21;50.90;99424.59;5073222;28;20608;-65
2022/08/09 01:23:55;;;;;;;10.27;6.03;;;;;;;25.19;50.98;99421.16;5070246;28;20270;-66
2022/08/09 01:26:43;;;;;;;6.57;5.93;;;;;;;25.13;51.02;99428.47;5072691;28;20188;-59
2022/08/09 01:29:13;;;;;;;7.13;5.73;;;;;;;25.09;50.06;99424.25;5071468;28;20214;-58
2022/08/09 01:31:44;;;;;;;10.55;5.55;;;;;;;25.05;48.94;99423.53;5073057;28;20187;-58
2022/08/09 01:34:15;;;;;;;7.73;6.10;;;;;;;25.05;49.18;99435.84;5073342;28;20578;-58
2022/08/09 01:36:45;;;;;;;6.17;5.60;;;;;;;25.01;48.99;99429.00;5073074;28;20211;-58
2022/08/09 01:39:14;;;;;;;6.20;5.30;;;;;;;25.02;48.97;99428.09;5073230;28;20203;-58
2022/08/09 01:41:44;;;;;;;6.40;5.80;;;;;;;24.87;50.74;99434.00;5072647;28;20441;-58
2022/08/09 01:44:13;;;;;;;6.38;5.75;;;;;;;24.77;52.02;99423.00;5073085;28;20241;-58
2022/08/09 01:46:43;;;;;;;7.55;6.20;;;;;;;24.69;52.79;99424.25;5073145;28;20242;-58
2022/08/09 01:49:12;;;;;;;7.27;5.83;;;;;;;24.59;54.05;99426.38;5073188;28;20194;-58
2022/08/09 01:51:42;;;;;;;7.50;6.67;;;;;;;24.50;54.61;99416.28;5073000;28;20203;-58
2022/08/09 01:54:10;;;;;;;7.80;6.97;;;;;;;24.43;55.47;99418.28;5073052;28;20196;-58
2022/08/09 01:56:42;;;;;;;8.40;6.90;;;;;;;24.34;55.61;99416.03;5072778;28;20987;-58
2022/08/09 01:59:15;;;;;;;7.83;6.93;;;;;;;24.32;55.97;99414.38;5072640;28;20226;-58
2022/08/09 02:01:44;;;;;;;8.90;7.93;;;;;;;24.08;56.54;99388.19;5072721;28;20195;-58
2022/08/09 02:04:12;;;;;;;8.13;7.53;;;;;;;24.17;57.33;99417.66;5072605;28;20658;-58
2022/08/09 02:09:29;;;;;;;10.80;8.33;;;;;;;24.01;56.98;99415.59;5072529;28;20562;-58
2022/08/09 02:11:57;;;;;;;9.30;8.43;;;;;;;23.99;57.26;99420.06;5072225;28;20199;-58
2022/08/09 02:14:27;;;;;;;9.80;8.43;;;;;;;23.97;57.34;99414.00;5072305;28;20574;-58
2022/08/09 02:16:55;;;;;;;9.50;8.50;;;;;;;23.99;56.88;99406.94;5072227;28;20215;-58
2022/08/09 02:19:22;;;;;;;10.30;9.30;;;;;;;23.94;57.02;99395.75;5072137;28;20200;-58
2022/08/09 02:21:52;;;;;;;9.03;8.27;;;;;;;24.02;56.54;99406.81;5072307;28;20200;-58
2022/08/09 02:24:25;;;;;;;10.03;8.77;;;;;;;24.08;55.40;99406.56;5072523;28;20191;-58
2022/08/09 02:26:57;;;;;;;9.93;8.70;;;;;;;24.12;55.26;99404.69;5071099;28;20437;-58
2022/08/09 02:29:29;;;;;;;10.77;9.70;;;;;;;24.28;53.41;99418.06;5072103;28;20253;-58
2022/08/09 02:32:00;;;;;;;9.33;8.43;;;;;;;24.33;53.00;99409.09;5071971;28;20191;-58
2022/08/09 02:34:32;;;;;;;9.53;8.30;;;;;;;24.40;52.38;99413.16;5071961;28;20202;-58
2022/08/09 02:37:02;;;;;;;9.10;8.20;;;;;;;24.43;52.50;99406.94;5072369;28;20243;-58
2022/08/09 02:39:34;;;;;;;9.67;8.70;;;;;;;24.43;52.74;99412.19;5072288;28;20191;-58
2022/08/09 02:42:05;;;;;;;10.80;7.63;;;;;;;24.36;52.63;99408.09;5071974;28;20667;-58
2022/08/09 02:44:40;;;;;;;7.77;7.10;;;;;;;24.36;53.05;99408.09;5071996;28;20191;-58
2022/08/09 02:47:11;;;;;;;8.03;6.83;;;;;;;24.31;52.60;99410.06;5072058;28;20183;-58
2022/08/09 02:49:43;;;;;;;6.73;6.00;;;;;;;24.31;51.80;99412.69;5072148;28;20196;-58
2022/08/09 02:52:13;;;;;;;6.73;6.03;;;;;;;24.32;52.09;99417.88;5070994;28;20913;-58
2022/08/09 02:54:41;;;;;;;6.27;5.70;;;;;;;24.38;51.09;99415.00;5071886;28;20196;-58
2022/08/09 02:57:10;;;;;;;6.70;6.00;;;;;;;24.32;51.03;99410.00;5071784;28;20226;-58
2022/08/09 02:59:40;;;;;;;5.80;5.20;;;;;;;24.37;50.22;99415.06;5071925;28;20190;-58
2022/08/09 03:02:09;;;;;;;6.90;4.83;;;;;;;24.35;50.47;99416.91;5071521;28;20191;-58
2022/08/09 03:04:37;;;;;;;8.07;5.63;;;;;;;24.40;49.52;99415.78;5071536;28;20196;-58
2022/08/09 03:07:05;;;;;;;7.77;6.17;;;;;;;24.40;49.20;99422.81;5071666;28;20226;-58
2022/08/09 03:09:33;;;;;;;6.93;5.33;;;;;;;24.35;49.81;99417.75;5071490;28;20203;-58
2022/08/09 03:12:02;;;;;;;5.90;5.30;;;;;;;24.31;50.11;99415.31;5071321;28;20192;-58
2022/08/09 03:14:30;;;;;;;5.77;5.20;;;;;;;24.23;50.07;99417.41;5071244;28;20655;-58
2022/08/09 03:17:00;;;;;;;6.63;5.33;;;;;;;24.06;50.65;99395.25;5071373;28;20223;-58
2022/08/09 03:19:28;;;;;;;4.93;4.47;;;;;;;24.14;50.35;99431.75;5071183;28;20187;-58
2022/08/09 03:21:57;;;;;;;4.90;4.50;;;;;;;24.03;49.69;99433.91;5071017;28;20199;-58
2022/08/09 03:24:24;;;;;;;6.03;4.73;;;;;;;23.95;50.54;99430.75;5071178;28;20574;-58
2022/08/09 03:26:51;;;;;;;5.77;4.93;;;;;;;23.83;50.79;99429.44;5071443;28;20195;-58
2022/08/09 03:29:19;;;;;;;7.83;6.07;;;;;;;23.86;50.81;99428.47;5071150;28;20198;-58
2022/08/09 03:31:47;;;;;;;7.70;5.27;;;;;;;23.87;49.98;99417.91;5071088;28;20191;-58
2022/08/09 03:34:15;;;;;;;6.80;5.37;;;;;;;23.88;50.07;99421.38;5071183;28;20192;-58
2022/08/09 03:36:42;;;;;;;7.75;5.70;;;;;;;23.88;50.04;99424.88;5070537;28;20445;-58
2022/08/09 03:39:09;;;;;;;7.17;5.30;;;;;;;23.97;49.81;99421.88;5070906;28;20685;-58
2022/08/09 03:41:36;;;;;;;6.27;5.50;;;;;;;24.08;49.03;99413.59;5071070;28;20187;-58
2022/08/09 03:44:03;;;;;;;6.73;5.57;;;;;;;24.14;49.35;99413.38;5070961;28;20192;-58
2022/08/09 03:46:30;;;;;;;6.03;5.13;;;;;;;24.24;48.76;99411.22;5071045;28;20202;-58
2022/08/09 03:48:59;;;;;;;5.20;4.80;;;;;;;24.26;48.38;99412.00;5070787;28;20226;-58
2022/08/09 03:51:29;;;;;;;7.03;5.43;;;;;;;24.26;48.50;99409.38;5070835;28;20265;-58
2022/08/09 03:53:56;;;;;;;8.73;5.30;;;;;;;24.32;48.50;99412.63;5070551;28;20637;-58
2022/08/09 03:56:23;;;;;;;6.43;5.37;;;;;;;24.32;48.00;99423.13;5070635;28;20712;-58
2022/08/09 03:58:50;;;;;;;6.47;5.03;;;;;;;24.27;47.78;99417.22;5070851;28;20219;-58
2022/08/09 04:01:17;;;;;;;6.50;4.93;;;;;;;24.33;48.21;99416.97;5070742;28;20199;-58
2022/08/09 04:03:45;;;;;;;5.43;4.50;;;;;;;24.33;47.97;99418.75;5070264;28;20196;-58
2022/08/09 04:06:12;;;;;;;5.90;5.30;;;;;;;24.25;48.13;99415.56;5070220;28;20191;-58
2022/08/09 04:08:41;;;;;;;5.40;4.90;;;;;;;24.25;48.06;99415.56;5070098;28;20195;-58
2022/08/09 04:11:08;;;;;;;9.70;5.23;;;;;;;24.31;48.45;99417.97;5070258;28;20539;-58
2022/08/09 04:13:34;;;;;;;6.30;5.10;;;;;;;24.40;48.26;99409.69;5069981;28;20196;-58
2022/08/09 04:16:01;;;;;;;8.47;5.93;;;;;;;24.41;48.18;99409.63;5070292;28;20203;-58
2022/08/09 04:18:28;;;;;;;8.30;6.23;;;;;;;24.48;48.77;99413.69;5069859;28;20230;-58
2022/08/09 04:20:55;;;;;;;6.90;5.80;;;;;;;24.47;48.15;99398.88;5070000;28;20199;-58
2022/08/09 04:23:23;;;;;;;6.03;5.50;;;;;;;24.53;47.67;99409.09;5069968;28;20654;-58
2022/08/09 04:25:51;;;;;;;13.10;5.83;;;;;;;24.43;48.34;99410.41;5067718;28;20654;-58
2022/08/09 04:28:20;;;;;;;6.63;5.50;;;;;;;24.32;48.44;99399.50;5069918;28;20666;-58
2022/08/09 04:30:46;;;;;;;6.40;5.33;;;;;;;24.31;48.70;99394.31;5069485;28;20207;-58
2022/08/09 04:33:13;;;;;;;5.90;5.33;;;;;;;24.32;48.58;99398.63;5069682;28;20203;-58
2022/08/09 04:35:41;;;;;;;6.50;5.87;;;;;;;24.28;49.43;99392.63;5070063;28;20195;-57
2022/08/09 04:38:07;;;;;;;6.93;6.33;;;;;;;24.26;49.13;99391.84;5069743;28;20277;-57
2022/08/09 04:40:50;;;;;;;9.37;6.73;;;;;;;24.22;49.04;99394.69;5069892;28;20625;-58
2022/08/09 04:43:18;;;;;;;6.93;6.20;;;;;;;24.24;48.57;99388.44;5069156;28;20206;-57
2022/08/09 04:45:46;;;;;;;6.97;6.07;;;;;;;24.33;48.05;99400.34;5069664;28;20282;-57
2022/08/09 04:48:13;;;;;;;8.00;5.78;;;;;;;24.32;48.00;99404.75;5069590;28;20435;-57
2022/08/09 04:50:41;;;;;;;6.73;5.10;;;;;;;24.28;48.34;99405.78;5069481;28;20197;-57
2022/08/09 04:53:09;;;;;;;8.73;5.90;;;;;;;24.21;48.93;99409.56;5068093;28;20195;-57
2022/08/09 04:55:36;;;;;;;7.33;5.53;;;;;;;24.18;49.75;99401.81;5062751;28;20207;-57
2022/08/09 04:58:03;;;;;;;6.47;5.97;;;;;;;24.23;49.51;99412.16;5069241;28;20211;-57
2022/08/09 05:00:33;;;;;;;9.90;6.27;;;;;;;24.33;49.01;99413.47;5069887;28;20195;-57
2022/08/09 05:03:01;;;;;;;8.13;6.03;;;;;;;24.47;48.21;99414.63;5069642;28;20213;-57
2022/08/09 05:05:27;;;;;;;7.20;6.50;;;;;;;24.57;49.00;99405.44;5069403;28;20192;-57
2022/08/09 05:07:54;;;;;;;6.67;6.03;;;;;;;24.71;47.98;99406.63;5069483;28;20187;-57
2022/08/09 05:10:21;;;;;;;9.07;6.13;;;;;;;24.76;47.92;99408.13;5069510;28;20196;-57
2022/08/09 05:12:48;;;;;;;7.60;6.37;;;;;;;24.76;48.47;99402.88;5069059;28;20586;-57
2022/08/09 05:15:15;;;;;;;9.25;6.43;;;;;;;24.94;47.91;99412.63;5067738;28;20430;-57
2022/08/09 05:17:43;;;;;;;6.90;5.90;;;;;;;25.07;47.69;99408.56;5068249;28;20690;-57
2022/08/09 05:20:10;;;;;;;8.53;6.10;;;;;;;25.19;47.55;99408.00;5069193;28;20219;-56
2022/08/09 05:22:37;;;;;;;9.30;6.70;;;;;;;25.23;46.91;99408.72;5068895;28;20188;-57
2022/08/09 05:25:05;;;;;;;9.37;6.67;;;;;;;25.32;46.77;99402.22;5068963;28;20188;-57
2022/08/09 05:27:32;;;;;;;8.87;6.73;;;;;;;25.43;46.10;99410.47;5068386;28;20453;-57
2022/08/09 05:29:59;;;;;;;9.83;6.73;;;;;;;25.42;46.26;99406.97;5068793;28;20196;-58
2022/08/09 05:32:26;;;;;;;10.87;6.60;;;;;;;25.54;46.11;99413.50;5068032;28;20199;-58
2022/08/09 05:34:55;;;;;;;6.63;5.77;;;;;;;25.66;45.60;99403.25;5068414;28;20211;-57
2022/08/09 05:37:21;;;;;;;8.60;6.83;;;;;;;25.71;45.24;99416.22;5068842;28;20644;-58
2022/08/09 05:39:48;;;;;;;11.47;7.00;;;;;;;25.70;45.68;99414.50;5068583;28;20229;-58
2022/08/09 05:42:15;;;;;;;9.90;6.60;;;;;;;25.77;45.33;99410.63;5067485;28;20203;-58
2022/08/09 05:44:42;;;;;;;9.90;6.43;;;;;;;25.87;45.01;99411.94;5068887;28;20231;-58
2022/08/09 05:47:09;;;;;;;9.83;6.60;;;;;;;25.87;45.21;99411.94;5068818;28;20196;-58
2022/08/09 05:49:36;;;;;;;9.90;6.77;;;;;;;25.90;45.47;99417.06;5068827;28;20206;-58
2022/08/09 05:52:04;;;;;;;11.63;7.17;;;;;;;26.00;45.40;99415.69;5069038;28;20195;-57
2022/08/09 05:54:31;;;;;;;14.63;6.77;;;;;;;26.20;44.37;99404.22;5068710;28;20202;-57
2022/08/09 05:56:58;;;;;;;9.10;6.33;;;;;;;26.36;43.65;99415.72;5065867;28;20633;-57
2022/08/09 05:59:25;;;;;;;10.10;7.13;;;;;;;26.57;43.14;99405.88;5069590;28;20499;-57
2022/08/09 06:01:52;;;;;;;8.88;6.25;;;;;;;26.85;42.65;99408.84;5071822;28;20194;-57
2022/08/09 06:04:18;;;;;;;10.13;6.78;;;;;;;27.08;42.64;99411.19;5071681;28;20196;-58
2022/08/09 06:06:45;;;;;;;7.10;6.50;;;;;;;27.17;41.54;99410.66;5072023;28;20268;-58
2022/08/09 06:09:13;;;;;;;8.55;6.30;;;;;;;27.24;41.45;99411.22;5072052;28;20191;-58
2022/08/09 06:11:40;;;;;;;8.25;6.85;;;;;;;27.26;41.62;99409.34;5071625;28;20188;-58
2022/08/09 06:14:07;;;;;;;9.95;6.78;;;;;;;27.42;40.93;99408.47;5072035;28;20203;-58
2022/08/09 06:16:34;;;;;;;6.88;5.80;;;;;;;27.54;40.25;99404.31;5071954;28;20211;-57
2022/08/09 06:19:01;;;;;;;8.60;6.50;;;;;;;27.61;39.28;99408.31;5070816;28;20528;-58
2022/08/09 06:21:28;;;;;;;8.40;6.15;;;;;;;27.64;39.46;99402.88;5065327;28;20196;-57
2022/08/09 06:23:55;;;;;;;7.72;6.00;;;;;;;27.64;39.59;99404.66;5068233;28;20191;-57
2022/08/09 06:26:24;;;;;;;7.25;5.47;;;;;;;27.69;39.59;99406.09;5068301;28;20252;-58
2022/08/09 06:28:52;;;;;;;6.38;5.78;;;;;;;27.74;39.40;99409.38;5070690;28;20180;-58
2022/08/09 06:31:19;;;;;;;9.50;6.47;;;;;;;27.82;38.83;99415.09;5066271;28;20203;-57
2022/08/09 06:33:46;;;;;;;10.13;6.13;;;;;;;27.88;38.74;99398.03;5069629;28;20206;-58
2022/08/09 06:36:13;;;;;;;6.40;5.18;;;;;;;27.96;38.27;99401.09;5067120;28;20188;-58
2022/08/09 06:38:40;;;;;;;5.70;5.07;;;;;;;27.96;37.72;99399.28;5071095;28;20218;-59
2022/08/09 06:41:07;;;;;;;6.35;5.78;;;;;;;28.05;38.15;99406.75;5070907;28;20268;-57
2022/08/09 06:43:35;;;;;;;10.85;8.55;;;;;;;28.19;37.35;99399.81;5070725;28;20195;-57
2022/08/09 06:46:02;;;;;;;11.35;9.13;;;;;;;28.01;37.57;99376.13;5070528;28;20195;-57
2022/08/09 06:48:29;;;;;;;13.10;9.32;;;;;;;28.26;37.96;99398.53;5070902;28;20184;-58
2022/08/09 06:50:56;;;;;;;11.23;9.70;;;;;;;28.26;37.31;99398.53;5070762;28;20586;-56
2022/08/09 06:53:23;;;;;;;11.85;10.60;;;;;;;28.41;36.59;99395.00;5070898;28;20194;-57
2022/08/09 06:55:50;;;;;;;18.98;10.98;;;;;;;28.41;36.85;99398.50;5071047;28;20184;-58
2022/08/09 06:58:17;;;;;;;13.35;11.10;;;;;;;28.43;36.98;99391.31;5069997;28;20226;-57
2022/08/09 07:00:45;;;;;;;14.35;11.85;;;;;;;28.45;37.12;99394.75;5070589;28;20199;-57
2022/08/09 07:03:12;;;;;;;13.32;10.48;;;;;;;28.54;36.93;99396.84;5070950;28;20206;-57
2022/08/09 07:05:39;;;;;;;11.05;9.23;;;;;;;28.61;36.62;99394.69;5070587;28;20192;-57
2022/08/09 07:08:06;;;;;;;10.88;9.25;;;;;;;28.77;35.83;99398.16;5070972;28;20191;-57
2022/08/09 07:10:33;;;;;;;12.90;8.48;;;;;;;28.80;36.17;99397.13;5070874;28;20198;-57
2022/08/09 07:13:00;;;;;;;12.32;8.27;;;;;;;28.85;35.60;99398.56;5070680;28;20950;-57
2022/08/09 07:15:27;;;;;;;9.20;8.07;;;;;;;28.90;35.84;99390.38;5070692;28;20188;-57
2022/08/09 07:17:56;;;;;;;13.35;8.27;;;;;;;29.05;36.11;99407.94;5070635;28;20227;-57
2022/08/09 07:20:24;;;;;;;10.27;7.57;;;;;;;29.11;35.68;99395.22;5070476;28;20291;-57
2022/08/09 07:22:51;;;;;;;10.73;7.68;;;;;;;29.18;35.85;99396.53;5070680;28;20230;-57
2022/08/09 07:25:18;;;;;;;9.43;7.28;;;;;;;29.29;35.28;99400.31;5070835;28;20519;-57
2022/08/09 07:27:45;;;;;;;10.23;7.78;;;;;;;29.39;36.38;99399.69;5070566;28;20191;-57
2022/08/09 07:30:13;;;;;;;14.02;7.82;;;;;;;29.49;35.21;99390.22;5070649;28;20539;-57
2022/08/09 07:32:41;;;;;;;9.73;8.27;;;;;;;29.63;36.18;99402.59;5069954;28;20195;-57
2022/08/09 07:35:11;;;;;;;8.63;7.05;;;;;;;29.68;35.64;99401.34;5069892;28;20195;-56
2022/08/09 07:37:39;;;;;;;15.70;8.77;;;;;;;29.62;35.44;99400.88;5070525;28;20195;-57
2022/08/09 07:40:07;;;;;;;12.65;8.05;;;;;;;29.67;34.50;99394.34;5069921;28;20442;-57
2022/08/09 07:42:34;;;;;;;8.18;6.88;;;;;;;29.81;35.04;99402.28;5070192;28;20535;-56
2022/08/09 07:45:01;;;;;;;9.80;7.43;;;;;;;29.80;35.63;99399.75;5070241;28;20202;-57
2022/08/09 07:47:28;;;;;;;7.65;6.97;;;;;;;29.79;34.66;99403.31;5069944;28;20196;-57
2022/08/09 07:49:55;;;;;;;8.77;7.97;;;;;;;29.83;34.26;99404.88;5069924;28;20183;-57
2022/08/09 07:52:23;;;;;;;9.73;7.40;;;;;;;29.94;34.53;99405.03;5068549;28;20449;-57
2022/08/09 07:54:50;;;;;;;8.35;6.38;;;;;;;30.13;32.72;99407.34;5069955;28;20449;-57
2022/08/09 07:57:17;;;;;;;6.57;5.97;;;;;;;30.25;32.25;99402.06;5069951;28;20196;-57
2022/08/09 07:59:44;;;;;;;8.50;6.32;;;;;;;30.43;32.22;99397.41;5069926;28;20234;-57
2022/08/09 08:02:11;;;;;;;9.07;6.38;;;;;;;30.55;31.46;99395.69;5069519;28;20437;-57
2022/08/09 08:04:38;;;;;;;6.82;6.13;;;;;;;30.70;32.12;99392.88;5069978;28;20252;-57
2022/08/09 08:07:05;;;;;;;6.90;6.18;;;;;;;30.79;31.31;99399.38;5068708;28;20215;-57
2022/08/09 08:09:33;;;;;;;9.48;6.43;;;;;;;30.81;30.75;99397.47;5069674;28;20196;-66
2022/08/09 08:12:00;;;;;;;13.18;6.32;;;;;;;30.88;31.28;99394.28;5069012;28;20210;-66
2022/08/09 08:14:27;;;;;;;7.32;5.88;;;;;;;30.95;31.00;99392.09;5069650;28;20192;-66
2022/08/09 08:16:54;;;;;;;7.93;6.10;;;;;;;31.02;30.84;99392.50;5068962;28;20191;-67
2022/08/09 08:19:21;;;;;;;7.70;6.78;;;;;;;31.10;30.26;99387.50;5068808;28;20223;-65
2022/08/09 08:21:49;;;;;;;12.68;6.88;;;;;;;31.08;30.19;99384.13;5067162;28;20871;-65
2022/08/09 08:24:15;;;;;;;7.22;4.93;;;;;;;31.21;27.41;99385.81;5069180;28;20663;-65
2022/08/09 08:26:44;;;;;;;9.60;5.03;;;;;;;31.27;27.99;99387.19;5069391;28;20199;-66
2022/08/09 08:29:11;;;;;;;6.72;4.95;;;;;;;31.27;28.28;99382.72;5068790;28;20245;-65
2022/08/09 08:31:38;;;;;;;6.82;5.10;;;;;;;31.30;28.77;99381.66;5068704;28;20231;-65
2022/08/09 08:34:05;;;;;;;10.25;5.13;;;;;;;31.40;28.32;99385.38;5068132;28;20219;-66
2022/08/09 08:36:33;;;;;;;8.38;6.10;;;;;;;31.51;28.66;99385.47;5068336;28;20191;-66
2022/08/09 08:39:00;;;;;;;7.53;6.00;;;;;;;31.62;28.79;99382.09;5068326;28;20247;-66
2022/08/09 08:41:27;;;;;;;6.32;5.43;;;;;;;31.61;28.23;99386.53;5068921;28;20222;-67
2022/08/09 08:43:56;;;;;;;6.13;5.10;;;;;;;31.58;26.33;99383.25;5069361;28;20245;-66
2022/08/09 08:46:30;;;;;;;8.40;5.63;;;;;;;31.06;26.88;99309.06;5069439;28;20198;-66
2022/08/09 08:48:58;;;;;;;9.10;5.18;;;;;;;31.42;26.81;99370.19;5068420;28;20600;-67
2022/08/09 08:51:26;;;;;;;9.07;5.38;;;;;;;31.63;27.01;99365.16;5069381;28;20188;-66
2022/08/09 08:53:53;;;;;;;5.50;4.57;;;;;;;31.73;26.40;99371.53;5069206;28;20187;-66
2022/08/09 08:56:20;;;;;;;5.28;4.10;;;;;;;31.82;26.36;99362.88;5068971;28;20191;-66
2022/08/09 08:58:48;;;;;;;7.72;4.65;;;;;;;31.90;26.24;99366.69;5068987;28;20223;-66
2022/08/09 09:01:18;;;;;;;7.25;6.55;;;;;;;32.02;26.53;99355.19;5068440;28;20195;-66
2022/08/09 09:03:47;;;;;;;9.93;7.35;;;;;;;32.20;27.50;99355.59;5068856;28;20191;-65
2022/08/09 09:06:17;;;;;;;6.95;5.13;;;;;;;32.14;26.17;99357.91;5069299;28;20282;-66
2022/08/09 09:08:46;;;;;;;8.18;6.93;;;;;;;32.15;26.36;99352.44;5068932;28;20196;-66
2022/08/09 09:11:13;;;;;;;7.60;4.65;;;;;;;32.17;25.52;99355.84;5068552;28;20200;-65
2022/08/09 09:13:41;;;;;;;9.18;4.18;;;;;;;32.22;26.12;99352.84;5068180;28;20195;-66
2022/08/09 09:16:09;;;;;;;9.38;5.70;;;;;;;32.44;26.04;99339.63;5068932;28;20585;-67
2022/08/09 09:18:37;;;;;;;5.00;4.00;;;;;;;32.40;24.18;99336.34;5068547;28;20254;-66
2022/08/09 09:21:07;;;;;;;4.25;3.90;;;;;;;32.57;24.23;99332.44;5068992;28;20200;-66
2022/08/09 09:23:42;;;;;;;5.13;3.65;;;;;;;32.79;24.31;99329.81;5068908;28;20196;-66
2022/08/09 09:26:09;;;;;;;9.90;4.78;;;;;;;32.78;24.51;99337.91;5068642;28;20191;-67
2022/08/09 09:28:36;;;;;;;7.32;4.38;;;;;;;32.73;23.83;99337.44;5068790;28;20578;-66
2022/08/09 09:31:04;;;;;;;8.13;4.60;;;;;;;32.72;24.44;99325.09;5072011;28;20294;-66
2022/08/09 09:33:33;;;;;;;5.00;3.92;;;;;;;32.79;23.97;99315.66;5072553;28;20195;-66
2022/08/09 09:36:03;;;;;;;5.57;4.10;;;;;;;32.96;23.89;99315.19;5071089;28;20477;-58
2022/08/09 09:38:55;;;;;;;4.68;4.07;;;;;;;32.93;23.39;99318.94;5072161;28;20439;-59
2022/08/09 09:41:31;;;;;;;4.35;4.05;;;;;;;32.74;23.87;99317.84;5057877;28;20681;-58
2022/08/09 09:44:00;;;;;;;4.07;3.63;;;;;;;32.59;23.76;99318.06;5072192;28;20206;-58
2022/08/09 09:46:30;;;;;;;5.50;4.95;;;;;;;32.66;24.72;99305.97;5070462;28;20196;-58
2022/08/09 09:49:00;;;;;;;6.75;5.25;;;;;;;32.91;24.19;99309.41;5056169;28;20473;-58
2022/08/09 09:51:29;;;;;;;6.85;3.72;;;;;;;33.17;22.34;99314.38;5064631;28;20196;-58
2022/08/09 09:54:07;;;;;;;6.60;5.43;;;;;;;33.25;22.73;99313.78;5071756;28;20208;-58
2022/08/09 09:56:36;;;;;;;6.90;4.60;;;;;;;33.38;22.77;99311.81;5070032;28;20578;-58
2022/08/09 09:59:04;;;;;;;3.80;3.50;;;;;;;33.45;22.18;99301.53;5066227;28;20789;-57
2022/08/09 10:01:31;;;;;;;4.20;3.47;;;;;;;33.57;21.74;99306.72;5069046;28;20420;-58
2022/08/09 10:03:58;;;;;;;5.35;3.72;;;;;;;33.55;21.98;99310.44;5070524;28;20192;-58
2022/08/09 10:06:25;;;;;;;6.45;3.03;;;;;;;33.23;20.40;99316.56;5071328;28;20195;-58
2022/08/09 10:09:01;;;;;;;5.57;2.53;;;;;;;32.97;19.73;99309.75;5066976;28;20195;-58
2022/08/09 10:11:31;;;;;;;4.18;2.60;;;;;;;33.16;19.43;99295.84;5065224;28;20313;-57
2022/08/09 10:13:58;;;;;;;4.47;2.78;;;;;;;33.41;19.57;99298.25;5072219;28;20195;-57
2022/08/09 10:16:30;;;;;;;3.00;2.70;;;;;;;33.48;19.03;99296.78;5072122;28;20195;-58
2022/08/09 10:18:58;;;;;;;4.82;3.17;;;;;;;33.56;19.56;99306.81;5071978;28;20702;-57
2022/08/09 10:21:25;;;;;;;4.38;2.75;;;;;;;33.49;19.71;99297.63;5069217;28;20278;-57
2022/08/09 10:23:54;;;;;;;5.93;2.65;;;;;;;33.41;19.96;99276.94;5072149;28;20204;-57
2022/08/09 10:26:23;;;;;;;5.15;3.58;;;;;;;33.47;19.95;99300.41;5070263;28;20585;-58
2022/08/09 10:28:51;;;;;;;4.43;3.20;;;;;;;33.57;20.44;99296.06;5070489;28;20310;-58
2022/08/09 10:31:18;;;;;;;4.03;3.50;;;;;;;33.46;20.27;99301.38;5071246;28;20199;-58
2022/08/09 10:33:44;;;;;;;5.93;4.05;;;;;;;33.46;20.56;99297.91;5071400;28;20277;-57
2022/08/09 10:36:12;;;;;;;4.30;3.90;;;;;;;33.50;20.58;99294.00;5071271;28;20202;-58
2022/08/09 10:38:42;;;;;;;5.38;3.72;;;;;;;33.11;21.54;99296.22;5069922;28;20433;-57
2022/08/09 10:41:11;;;;;;;5.15;3.42;;;;;;;33.11;22.26;99312.19;5069733;28;20628;-64
2022/08/09 10:43:42;;;;;;;6.70;4.07;;;;;;;33.00;22.48;99306.84;5071055;28;20491;-65
2022/08/09 10:46:23;;;;;;;3.97;3.63;;;;;;;33.13;22.49;99299.59;5052425;28;20207;-65
2022/08/09 10:48:58;;;;;;;9.77;4.75;;;;;;;33.05;22.74;99310.00;5054194;28;20188;-64
2022/08/09 10:51:38;;;;;;;6.22;4.18;;;;;;;33.10;23.28;99309.69;5063154;28;20978;-66
2022/08/09 10:54:06;;;;;;;8.82;4.30;;;;;;;33.25;22.77;99305.78;5050365;28;20200;-66
2022/08/09 10:56:37;;;;;;;4.43;3.80;;;;;;;33.39;22.79;99286.88;5070300;28;20187;-65
2022/08/09 10:59:29;;;;;;;6.03;4.03;;;;;;;33.57;22.98;99284.59;5067552;28;20589;-66
2022/08/09 11:01:56;;;;;;;8.30;3.70;;;;;;;33.23;23.13;99289.94;5065359;28;20237;-66
2022/08/09 11:04:24;;;;;;;6.07;4.32;;;;;;;32.91;22.69;99298.75;5068432;28;20195;-65
2022/08/09 11:07:29;;;;;;;4.53;4.13;;;;;;;32.81;22.90;99300.41;5052094;28;20207;-65
2022/08/09 11:09:56;;;;;;;5.80;3.97;;;;;;;32.89;23.24;99298.00;5052515;28;20253;-65
2022/08/09 11:12:27;;;;;;;4.40;3.95;;;;;;;32.78;22.49;99290.00;5050047;28;20619;-65
2022/08/09 11:14:56;;;;;;;6.78;3.80;;;;;;;32.81;22.64;99284.44;5049933;28;20484;-66
2022/08/09 11:17:51;;;;;;;5.10;3.80;;;;;;;33.28;22.57;99302.88;5049445;28;20219;-65
2022/08/09 11:20:21;;;;;;;5.95;4.40;;;;;;;33.40;22.92;99287.72;5054607;28;20238;-64
2022/08/09 11:23:00;;;;;;;8.13;5.18;;;;;;;33.53;22.90;99288.41;5069935;28;20278;-64
2022/08/09 11:25:38;;;;;;;6.03;5.07;;;;;;;33.77;22.86;99291.78;5069718;28;20571;-65
2022/08/09 11:28:35;;;;;;;5.63;4.80;;;;;;;33.89;22.71;99274.78;5069504;28;20210;-65
2022/08/09 11:31:04;;;;;;;10.68;5.70;;;;;;;34.00;23.28;99280.06;5069654;28;20196;-65
2022/08/09 11:33:48;;;;;;;7.32;5.10;;;;;;;34.11;23.27;99285.38;5069426;28;20678;-65
2022/08/09 11:36:18;;;;;;;7.38;5.20;;;;;;;34.17;23.08;99284.00;5069072;28;20429;-64
2022/08/09 11:39:00;;;;;;;11.18;5.63;;;;;;;33.86;23.25;99288.34;5069295;28;20202;-64
2022/08/09 11:41:29;;;;;;;8.05;6.18;;;;;;;33.78;23.42;99289.00;5069616;28;20206;-64
2022/08/09 11:43:58;;;;;;;7.05;6.45;;;;;;;33.68;23.76;99289.84;5055299;28;20314;-64